Hauptseite
METAR-TAF:

METAR-TAF

Flughäfen :

Flughafen Irkutsk

Irkutsk, Russland

Breite: 52-16N, Länge: 104-19E, Höhe: 513 m

Beobachtung

Neuester Wetterbericht von vor 21 Minuten, um 07:30 UTC
Wind 4 kt aus Nord/Nordwest
Temperatur 14°C
Luftfeuchtigkeit 36%
Luftdruck 1024 hPa
Sichtweite 10 km oder mehr
keine Wolken unter 1500 m und keine Kumulonimbus oder Gewitterwolken

METAR: UIII 220730Z 33002MPS CAVOK 14/M01 Q1024 R30/CLRD60 NOSIG RMK QFE723/0964

Zeit: 15:51 (07:51 UTC)

Prognose

Neuester Wetterbericht von vor 2 Stunden und 51 Minuten, um 05:00 UTC
Gültige Prognose vom 22 um 06 UTC bis 23 um 06 UTC
Wind 6 kt aus Süd/Südost
Sichtweite 10 km oder mehr
keine Wolken unter 1500 m und keine Kumulonimbus oder Gewitterwolken

TAF: UIII 220500Z 2206/2306 16003MPS CAVOK

Wetterbeobachtungen und Prognosen von mehr als 4000 Flughäfen (METAR und TAF Bericht).

Die verfügbaren Stationen werden durch gelbe und rote Markierungen auf der Karte dargestellt.

Führen Sie die Maus auf sie, um den Namen der Station zu sehen.

Darauf klicken, um die Beobachtung von Wetterbeobachtungen und Prognosen zu sehen.

Um die Karte zu ändern : klicken Sie auf den grünen Tasten mit einem schwarzen Kreuz Zum Vergrößern, auf den grünen Button mit einem Gedankenstrich zu verkleinern, oder auf die grünen Pfeile für benachbarte Karten.


METAR-TAF: